sensor_id;sensor_type;location;lat;lon;timestamp;P1;durP1;ratioP1;P2;durP2;ratioP2
34775;SDS011;20989;52.566;13.346;2022-12-16T00:02:33;6.88;;;6.28;;
34775;SDS011;20989;52.566;13.346;2022-12-16T00:05:33;6.88;;;6.15;;
34775;SDS011;20989;52.566;13.346;2022-12-16T00:08:37;7.78;;;7.07;;
34775;SDS011;20989;52.566;13.346;2022-12-16T00:11:38;7.40;;;6.70;;
34775;SDS011;20989;52.566;13.346;2022-12-16T00:14:38;7.15;;;6.55;;
34775;SDS011;20989;52.566;13.346;2022-12-16T00:17:39;7.20;;;6.50;;
34775;SDS011;20989;52.566;13.346;2022-12-16T00:20:44;6.78;;;6.18;;
34775;SDS011;20989;52.566;13.346;2022-12-16T00:23:46;7.50;;;6.80;;
34775;SDS011;20989;52.566;13.346;2022-12-16T00:26:47;6.90;;;6.20;;
34775;SDS011;20989;52.566;13.346;2022-12-16T00:29:47;7.00;;;6.38;;
34775;SDS011;20989;52.566;13.346;2022-12-16T00:32:48;7.40;;;6.70;;
34775;SDS011;20989;52.566;13.346;2022-12-16T00:35:49;7.25;;;6.65;;
34775;SDS011;20989;52.566;13.346;2022-12-16T00:38:53;7.10;;;6.40;;
34775;SDS011;20989;52.566;13.346;2022-12-16T00:41:53;6.65;;;6.05;;
34775;SDS011;20989;52.566;13.346;2022-12-16T00:44:54;6.97;;;6.28;;
34775;SDS011;20989;52.566;13.346;2022-12-16T00:47:55;7.50;;;6.78;;
34775;SDS011;20989;52.566;13.346;2022-12-16T00:50:55;7.35;;;6.65;;
34775;SDS011;20989;52.566;13.346;2022-12-16T00:53:56;8.20;;;7.35;;
34775;SDS011;20989;52.566;13.346;2022-12-16T00:56:57;7.68;;;6.93;;
34775;SDS011;20989;52.566;13.346;2022-12-16T00:59:57;7.93;;;7.18;;
34775;SDS011;20989;52.566;13.346;2022-12-16T01:02:58;7.35;;;6.65;;
34775;SDS011;20989;52.566;13.346;2022-12-16T01:05:59;7.80;;;7.10;;
34775;SDS011;20989;52.566;13.346;2022-12-16T01:09:00;8.43;;;6.68;;
34775;SDS011;20989;52.566;13.346;2022-12-16T01:12:00;7.88;;;7.07;;
34775;SDS011;20989;52.566;13.346;2022-12-16T01:15:01;7.38;;;6.68;;
34775;SDS011;20989;52.566;13.346;2022-12-16T01:18:05;7.57;;;6.88;;
34775;SDS011;20989;52.566;13.346;2022-12-16T01:21:06;7.95;;;7.15;;
34775;SDS011;20989;52.566;13.346;2022-12-16T01:24:11;7.72;;;7.03;;
34775;SDS011;20989;52.566;13.346;2022-12-16T01:27:12;7.80;;;7.00;;
34775;SDS011;20989;52.566;13.346;2022-12-16T01:30:14;8.38;;;7.57;;
34775;SDS011;20989;52.566;13.346;2022-12-16T01:33:15;7.57;;;6.78;;
34775;SDS011;20989;52.566;13.346;2022-12-16T01:36:16;6.80;;;6.20;;
34775;SDS011;20989;52.566;13.346;2022-12-16T01:39:17;7.30;;;6.60;;
34775;SDS011;20989;52.566;13.346;2022-12-16T01:42:19;7.97;;;7.28;;
34775;SDS011;20989;52.566;13.346;2022-12-16T01:45:31;6.78;;;6.18;;
34775;SDS011;20989;52.566;13.346;2022-12-16T01:51:38;6.80;;;6.20;;
34775;SDS011;20989;52.566;13.346;2022-12-16T01:54:43;7.00;;;6.28;;
34775;SDS011;20989;52.566;13.346;2022-12-16T01:57:53;8.10;;;7.30;;
34775;SDS011;20989;52.566;13.346;2022-12-16T02:03:57;7.75;;;7.10;;
34775;SDS011;20989;52.566;13.346;2022-12-16T02:07:02;8.07;;;7.28;;
34775;SDS011;20989;52.566;13.346;2022-12-16T02:10:02;7.32;;;6.68;;
34775;SDS011;20989;52.566;13.346;2022-12-16T02:13:11;8.20;;;7.40;;
34775;SDS011;20989;52.566;13.346;2022-12-16T02:19:58;7.72;;;6.95;;
34775;SDS011;20989;52.566;13.346;2022-12-16T02:23:21;7.78;;;7.05;;
34775;SDS011;20989;52.566;13.346;2022-12-16T02:26:34;8.38;;;7.43;;
34775;SDS011;20989;52.566;13.346;2022-12-16T02:30:03;8.18;;;7.30;;
34775;SDS011;20989;52.566;13.346;2022-12-16T02:33:46;7.25;;;6.55;;
34775;SDS011;20989;52.566;13.346;2022-12-16T02:46:58;8.02;;;7.20;;
34775;SDS011;20989;52.566;13.346;2022-12-16T02:49:58;7.82;;;7.10;;
34775;SDS011;20989;52.566;13.346;2022-12-16T02:52:59;7.60;;;6.90;;
34775;SDS011;20989;52.566;13.346;2022-12-16T03:05:45;7.05;;;6.35;;
34775;SDS011;20989;52.566;13.346;2022-12-16T03:08:49;7.07;;;6.47;;
34775;SDS011;20989;52.566;13.346;2022-12-16T03:11:53;7.05;;;6.35;;
34775;SDS011;20989;52.566;13.346;2022-12-16T03:14:55;7.32;;;6.63;;
34775;SDS011;20989;52.566;13.346;2022-12-16T03:17:56;6.82;;;6.22;;
34775;SDS011;20989;52.566;13.346;2022-12-16T03:21:04;7.80;;;6.88;;
34775;SDS011;20989;52.566;13.346;2022-12-16T03:24:07;7.43;;;6.72;;
34775;SDS011;20989;52.566;13.346;2022-12-16T03:30:42;6.40;;;5.90;;
34775;SDS011;20989;52.566;13.346;2022-12-16T03:33:55;7.03;;;6.40;;
34775;SDS011;20989;52.566;13.346;2022-12-16T03:37:09;7.45;;;6.45;;
34775;SDS011;20989;52.566;13.346;2022-12-16T03:40:12;6.68;;;6.07;;
34775;SDS011;20989;52.566;13.346;2022-12-16T03:43:13;7.00;;;6.40;;
34775;SDS011;20989;52.566;13.346;2022-12-16T03:46:15;7.00;;;6.40;;
34775;SDS011;20989;52.566;13.346;2022-12-16T03:49:16;7.45;;;6.75;;
34775;SDS011;20989;52.566;13.346;2022-12-16T03:52:17;6.72;;;6.13;;
34775;SDS011;20989;52.566;13.346;2022-12-16T03:55:18;7.45;;;6.63;;
34775;SDS011;20989;52.566;13.346;2022-12-16T03:58:18;6.85;;;6.25;;
34775;SDS011;20989;52.566;13.346;2022-12-16T04:01:20;6.63;;;6.03;;
34775;SDS011;20989;52.566;13.346;2022-12-16T04:04:22;7.10;;;6.47;;
34775;SDS011;20989;52.566;13.346;2022-12-16T04:07:23;7.07;;;6.47;;
34775;SDS011;20989;52.566;13.346;2022-12-16T04:10:24;6.70;;;6.10;;
34775;SDS011;20989;52.566;13.346;2022-12-16T04:13:43;6.20;;;5.60;;
34775;SDS011;20989;52.566;13.346;2022-12-16T04:17:02;6.13;;;5.63;;
34775;SDS011;20989;52.566;13.346;2022-12-16T04:20:25;7.03;;;6.40;;
34775;SDS011;20989;52.566;13.346;2022-12-16T04:23:53;7.43;;;6.07;;
34775;SDS011;20989;52.566;13.346;2022-12-16T04:27:14;7.03;;;6.35;;
34775;SDS011;20989;52.566;13.346;2022-12-16T04:30:24;7.43;;;6.70;;
34775;SDS011;20989;52.566;13.346;2022-12-16T04:33:26;7.28;;;6.63;;
34775;SDS011;20989;52.566;13.346;2022-12-16T04:36:46;7.43;;;6.55;;
34775;SDS011;20989;52.566;13.346;2022-12-16T04:40:05;7.32;;;6.65;;
34775;SDS011;20989;52.566;13.346;2022-12-16T04:43:25;6.03;;;5.53;;
34775;SDS011;20989;52.566;13.346;2022-12-16T04:46:44;6.22;;;5.72;;
34775;SDS011;20989;52.566;13.346;2022-12-16T04:50:03;7.07;;;6.47;;
34775;SDS011;20989;52.566;13.346;2022-12-16T04:53:23;6.63;;;6.03;;
34775;SDS011;20989;52.566;13.346;2022-12-16T04:56:43;7.45;;;6.28;;
34775;SDS011;20989;52.566;13.346;2022-12-16T05:03:50;6.63;;;6.05;;
34775;SDS011;20989;52.566;13.346;2022-12-16T05:07:09;5.35;;;4.95;;
34775;SDS011;20989;52.566;13.346;2022-12-16T05:10:28;6.85;;;6.25;;
34775;SDS011;20989;52.566;13.346;2022-12-16T05:13:47;7.57;;;6.88;;
34775;SDS011;20989;52.566;13.346;2022-12-16T05:17:06;6.32;;;5.72;;
34775;SDS011;20989;52.566;13.346;2022-12-16T05:20:26;6.63;;;6.13;;
34775;SDS011;20989;52.566;13.346;2022-12-16T05:23:45;6.72;;;6.13;;
34775;SDS011;20989;52.566;13.346;2022-12-16T05:27:05;6.50;;;5.78;;
34775;SDS011;20989;52.566;13.346;2022-12-16T05:30:24;6.72;;;6.13;;
34775;SDS011;20989;52.566;13.346;2022-12-16T05:33:44;6.45;;;5.95;;
34775;SDS011;20989;52.566;13.346;2022-12-16T05:37:03;6.10;;;5.50;;
34775;SDS011;20989;52.566;13.346;2022-12-16T05:40:22;6.68;;;6.03;;
34775;SDS011;20989;52.566;13.346;2022-12-16T05:43:41;6.63;;;6.05;;
34775;SDS011;20989;52.566;13.346;2022-12-16T05:47:00;6.35;;;5.78;;
34775;SDS011;20989;52.566;13.346;2022-12-16T05:50:19;6.82;;;6.22;;
34775;SDS011;20989;52.566;13.346;2022-12-16T05:53:38;6.07;;;5.57;;
34775;SDS011;20989;52.566;13.346;2022-12-16T05:56:58;6.07;;;5.55;;
34775;SDS011;20989;52.566;13.346;2022-12-16T06:00:17;6.10;;;5.55;;
34775;SDS011;20989;52.566;13.346;2022-12-16T06:03:36;7.00;;;6.40;;
34775;SDS011;20989;52.566;13.346;2022-12-16T06:06:55;6.25;;;5.75;;
34775;SDS011;20989;52.566;13.346;2022-12-16T06:10:14;6.68;;;6.07;;
34775;SDS011;20989;52.566;13.346;2022-12-16T06:13:33;6.72;;;6.22;;
34775;SDS011;20989;52.566;13.346;2022-12-16T06:16:53;6.40;;;5.82;;
34775;SDS011;20989;52.566;13.346;2022-12-16T06:20:12;6.32;;;5.80;;
34775;SDS011;20989;52.566;13.346;2022-12-16T06:23:31;7.00;;;6.30;;
34775;SDS011;20989;52.566;13.346;2022-12-16T06:26:50;7.00;;;6.30;;
34775;SDS011;20989;52.566;13.346;2022-12-16T06:30:09;7.00;;;6.32;;
34775;SDS011;20989;52.566;13.346;2022-12-16T06:33:29;5.80;;;5.20;;
34775;SDS011;20989;52.566;13.346;2022-12-16T06:36:48;6.57;;;6.07;;
34775;SDS011;20989;52.566;13.346;2022-12-16T06:40:07;6.40;;;5.80;;
34775;SDS011;20989;52.566;13.346;2022-12-16T06:43:27;7.78;;;7.03;;
34775;SDS011;20989;52.566;13.346;2022-12-16T06:46:46;6.53;;;5.93;;
34775;SDS011;20989;52.566;13.346;2022-12-16T06:50:06;6.05;;;5.53;;
34775;SDS011;20989;52.566;13.346;2022-12-16T06:53:25;5.72;;;5.22;;
34775;SDS011;20989;52.566;13.346;2022-12-16T06:56:44;6.13;;;5.63;;
34775;SDS011;20989;52.566;13.346;2022-12-16T07:00:04;6.38;;;5.88;;
34775;SDS011;20989;52.566;13.346;2022-12-16T07:03:23;6.22;;;5.63;;
34775;SDS011;20989;52.566;13.346;2022-12-16T07:06:42;6.03;;;5.50;;
34775;SDS011;20989;52.566;13.346;2022-12-16T07:10:01;6.07;;;5.57;;
34775;SDS011;20989;52.566;13.346;2022-12-16T07:13:21;6.43;;;5.82;;
34775;SDS011;20989;52.566;13.346;2022-12-16T07:16:40;6.32;;;5.57;;
34775;SDS011;20989;52.566;13.346;2022-12-16T07:19:59;15.65;;;6.22;;
34775;SDS011;20989;52.566;13.346;2022-12-16T07:23:18;8.07;;;6.43;;
34775;SDS011;20989;52.566;13.346;2022-12-16T07:26:37;6.32;;;5.72;;
34775;SDS011;20989;52.566;13.346;2022-12-16T07:29:56;11.13;;;6.10;;
34775;SDS011;20989;52.566;13.346;2022-12-16T07:33:17;6.78;;;6.13;;
34775;SDS011;20989;52.566;13.346;2022-12-16T07:36:37;6.03;;;5.45;;
34775;SDS011;20989;52.566;13.346;2022-12-16T07:39:56;6.47;;;5.65;;
34775;SDS011;20989;52.566;13.346;2022-12-16T07:43:16;5.75;;;5.25;;
34775;SDS011;20989;52.566;13.346;2022-12-16T07:46:35;6.18;;;5.68;;
34775;SDS011;20989;52.566;13.346;2022-12-16T07:49:54;6.78;;;5.75;;
34775;SDS011;20989;52.566;13.346;2022-12-16T07:53:13;5.75;;;5.25;;
34775;SDS011;20989;52.566;13.346;2022-12-16T07:56:32;6.32;;;5.80;;
34775;SDS011;20989;52.566;13.346;2022-12-16T07:59:51;6.55;;;5.72;;
34775;SDS011;20989;52.566;13.346;2022-12-16T08:03:10;7.32;;;5.40;;
34775;SDS011;20989;52.566;13.346;2022-12-16T08:06:29;8.23;;;5.78;;
34775;SDS011;20989;52.566;13.346;2022-12-16T08:09:48;5.93;;;5.45;;
34775;SDS011;20989;52.566;13.346;2022-12-16T08:13:07;5.85;;;5.35;;
34775;SDS011;20989;52.566;13.346;2022-12-16T08:16:27;9.80;;;6.38;;
34775;SDS011;20989;52.566;13.346;2022-12-16T08:19:46;8.85;;;6.05;;
34775;SDS011;20989;52.566;13.346;2022-12-16T08:23:06;6.22;;;5.72;;
34775;SDS011;20989;52.566;13.346;2022-12-16T08:26:26;8.43;;;6.13;;
34775;SDS011;20989;52.566;13.346;2022-12-16T08:29:45;9.45;;;6.63;;
34775;SDS011;20989;52.566;13.346;2022-12-16T08:33:04;5.78;;;5.22;;
34775;SDS011;20989;52.566;13.346;2022-12-16T08:36:23;6.13;;;5.63;;
34775;SDS011;20989;52.566;13.346;2022-12-16T08:39:42;6.57;;;5.97;;
34775;SDS011;20989;52.566;13.346;2022-12-16T08:43:02;6.55;;;5.88;;
34775;SDS011;20989;52.566;13.346;2022-12-16T08:46:21;6.93;;;6.20;;
34775;SDS011;20989;52.566;13.346;2022-12-16T08:49:40;6.93;;;5.80;;
34775;SDS011;20989;52.566;13.346;2022-12-16T08:52:59;6.40;;;5.88;;
34775;SDS011;20989;52.566;13.346;2022-12-16T08:56:18;6.50;;;5.90;;
34775;SDS011;20989;52.566;13.346;2022-12-16T08:59:38;11.00;;;5.95;;
34775;SDS011;20989;52.566;13.346;2022-12-16T09:02:57;7.85;;;6.40;;
34775;SDS011;20989;52.566;13.346;2022-12-16T09:06:16;8.50;;;6.57;;
34775;SDS011;20989;52.566;13.346;2022-12-16T09:09:35;18.23;;;7.80;;
34775;SDS011;20989;52.566;13.346;2022-12-16T09:13:03;12.25;;;6.68;;
34775;SDS011;20989;52.566;13.346;2022-12-16T09:16:27;11.80;;;6.38;;
34775;SDS011;20989;52.566;13.346;2022-12-16T09:19:46;9.55;;;5.95;;
34775;SDS011;20989;52.566;13.346;2022-12-16T09:23:05;7.97;;;6.47;;
34775;SDS011;20989;52.566;13.346;2022-12-16T09:26:25;8.63;;;5.85;;
34775;SDS011;20989;52.566;13.346;2022-12-16T09:29:44;8.05;;;6.75;;
34775;SDS011;20989;52.566;13.346;2022-12-16T09:33:04;7.82;;;5.63;;
34775;SDS011;20989;52.566;13.346;2022-12-16T09:36:23;10.73;;;6.57;;
34775;SDS011;20989;52.566;13.346;2022-12-16T09:39:42;7.97;;;7.13;;
34775;SDS011;20989;52.566;13.346;2022-12-16T09:43:07;8.48;;;7.15;;
34775;SDS011;20989;52.566;13.346;2022-12-16T09:50:17;9.95;;;6.82;;
34775;SDS011;20989;52.566;13.346;2022-12-16T09:53:40;7.88;;;6.93;;
34775;SDS011;20989;52.566;13.346;2022-12-16T09:57:01;8.07;;;6.70;;
34775;SDS011;20989;52.566;13.346;2022-12-16T10:00:24;8.68;;;7.07;;
34775;SDS011;20989;52.566;13.346;2022-12-16T10:03:45;6.78;;;6.18;;
34775;SDS011;20989;52.566;13.346;2022-12-16T10:07:04;9.50;;;6.70;;
34775;SDS011;20989;52.566;13.346;2022-12-16T10:14:18;10.57;;;6.85;;
34775;SDS011;20989;52.566;13.346;2022-12-16T10:17:50;13.30;;;6.60;;
34775;SDS011;20989;52.566;13.346;2022-12-16T10:21:10;8.18;;;6.75;;
34775;SDS011;20989;52.566;13.346;2022-12-16T10:24:55;6.10;;;5.60;;
34775;SDS011;20989;52.566;13.346;2022-12-16T10:31:49;8.30;;;6.97;;
34775;SDS011;20989;52.566;13.346;2022-12-16T10:35:25;9.13;;;6.82;;
34775;SDS011;20989;52.566;13.346;2022-12-16T10:38:52;7.90;;;6.38;;
34775;SDS011;20989;52.566;13.346;2022-12-16T10:42:28;6.55;;;5.85;;
34775;SDS011;20989;52.566;13.346;2022-12-16T10:45:49;6.70;;;6.05;;
34775;SDS011;20989;52.566;13.346;2022-12-16T10:49:14;8.55;;;6.88;;
34775;SDS011;20989;52.566;13.346;2022-12-16T10:52:33;6.88;;;6.20;;
34775;SDS011;20989;52.566;13.346;2022-12-16T10:59:34;7.30;;;6.60;;
34775;SDS011;20989;52.566;13.346;2022-12-16T11:02:54;7.20;;;6.50;;
34775;SDS011;20989;52.566;13.346;2022-12-16T11:06:15;6.50;;;5.90;;
34775;SDS011;20989;52.566;13.346;2022-12-16T11:09:46;6.22;;;5.72;;
34775;SDS011;20989;52.566;13.346;2022-12-16T11:16:40;7.80;;;6.97;;
34775;SDS011;20989;52.566;13.346;2022-12-16T11:23:28;7.28;;;6.57;;
34775;SDS011;20989;52.566;13.346;2022-12-16T11:26:55;6.30;;;5.70;;
34775;SDS011;20989;52.566;13.346;2022-12-16T11:30:22;6.18;;;5.60;;
34775;SDS011;20989;52.566;13.346;2022-12-16T11:33:41;8.38;;;6.40;;
34775;SDS011;20989;52.566;13.346;2022-12-16T11:37:02;6.25;;;5.70;;
34775;SDS011;20989;52.566;13.346;2022-12-16T11:40:21;6.15;;;5.60;;
34775;SDS011;20989;52.566;13.346;2022-12-16T11:43:42;7.00;;;6.10;;
34775;SDS011;20989;52.566;13.346;2022-12-16T11:47:08;8.55;;;6.30;;
34775;SDS011;20989;52.566;13.346;2022-12-16T11:50:50;9.70;;;6.70;;
34775;SDS011;20989;52.566;13.346;2022-12-16T11:54:15;14.27;;;5.90;;
34775;SDS011;20989;52.566;13.346;2022-12-16T11:57:51;8.27;;;6.25;;
34775;SDS011;20989;52.566;13.346;2022-12-16T12:01:24;12.15;;;6.22;;
34775;SDS011;20989;52.566;13.346;2022-12-16T12:04:48;9.05;;;7.22;;
34775;SDS011;20989;52.566;13.346;2022-12-16T12:11:37;9.30;;;7.13;;
34775;SDS011;20989;52.566;13.346;2022-12-16T12:15:14;16.58;;;7.63;;
34775;SDS011;20989;52.566;13.346;2022-12-16T12:18:44;8.30;;;7.47;;
34775;SDS011;20989;52.566;13.346;2022-12-16T12:25:47;20.08;;;11.57;;
34775;SDS011;20989;52.566;13.346;2022-12-16T12:29:50;12.48;;;10.10;;
34775;SDS011;20989;52.566;13.346;2022-12-16T12:37:08;13.13;;;9.18;;
34775;SDS011;20989;52.566;13.346;2022-12-16T12:40:48;16.17;;;9.20;;
34775;SDS011;20989;52.566;13.346;2022-12-16T12:44:25;12.68;;;8.63;;
34775;SDS011;20989;52.566;13.346;2022-12-16T12:48:08;19.00;;;10.75;;
34775;SDS011;20989;52.566;13.346;2022-12-16T12:55:41;15.50;;;9.05;;
34775;SDS011;20989;52.566;13.346;2022-12-16T12:59:04;17.08;;;9.50;;
34775;SDS011;20989;52.566;13.346;2022-12-16T13:06:39;38.05;;;28.08;;
34775;SDS011;20989;52.566;13.346;2022-12-16T13:13:37;24.95;;;18.75;;
34775;SDS011;20989;52.566;13.346;2022-12-16T13:16:56;29.30;;;20.15;;
34775;SDS011;20989;52.566;13.346;2022-12-16T13:20:34;22.92;;;14.40;;
34775;SDS011;20989;52.566;13.346;2022-12-16T13:23:55;20.20;;;14.83;;
34775;SDS011;20989;52.566;13.346;2022-12-16T13:27:15;21.17;;;14.55;;
34775;SDS011;20989;52.566;13.346;2022-12-16T13:30:35;17.67;;;13.88;;
34775;SDS011;20989;52.566;13.346;2022-12-16T13:33:56;16.00;;;12.93;;
34775;SDS011;20989;52.566;13.346;2022-12-16T13:37:26;16.95;;;12.07;;
34775;SDS011;20989;52.566;13.346;2022-12-16T13:48:03;16.13;;;10.65;;
34775;SDS011;20989;52.566;13.346;2022-12-16T13:55:10;10.40;;;9.13;;
34775;SDS011;20989;52.566;13.346;2022-12-16T13:58:49;15.60;;;9.55;;
34775;SDS011;20989;52.566;13.346;2022-12-16T14:02:22;13.53;;;9.70;;
34775;SDS011;20989;52.566;13.346;2022-12-16T14:05:50;15.50;;;10.30;;
34775;SDS011;20989;52.566;13.346;2022-12-16T14:09:22;21.15;;;9.73;;
34775;SDS011;20989;52.566;13.346;2022-12-16T14:16:24;11.43;;;9.30;;
34775;SDS011;20989;52.566;13.346;2022-12-16T14:20:23;14.20;;;8.98;;
34775;SDS011;20989;52.566;13.346;2022-12-16T14:27:37;12.93;;;8.70;;
34775;SDS011;20989;52.566;13.346;2022-12-16T14:31:04;14.07;;;8.15;;
34775;SDS011;20989;52.566;13.346;2022-12-16T14:34:28;11.45;;;7.45;;
34775;SDS011;20989;52.566;13.346;2022-12-16T14:37:52;10.90;;;7.45;;
34775;SDS011;20989;52.566;13.346;2022-12-16T14:41:21;13.13;;;7.88;;
34775;SDS011;20989;52.566;13.346;2022-12-16T14:44:43;11.15;;;8.43;;
34775;SDS011;20989;52.566;13.346;2022-12-16T14:51:46;8.95;;;7.97;;
34775;SDS011;20989;52.566;13.346;2022-12-16T14:55:10;9.55;;;7.13;;
34775;SDS011;20989;52.566;13.346;2022-12-16T14:58:37;13.73;;;7.18;;
34775;SDS011;20989;52.566;13.346;2022-12-16T15:01:57;8.00;;;6.97;;
34775;SDS011;20989;52.566;13.346;2022-12-16T15:05:22;8.05;;;7.18;;
34775;SDS011;20989;52.566;13.346;2022-12-16T15:09:03;12.18;;;8.48;;
34775;SDS011;20989;52.566;13.346;2022-12-16T15:12:25;8.68;;;7.13;;
34775;SDS011;20989;52.566;13.346;2022-12-16T15:15:48;9.25;;;8.00;;
34775;SDS011;20989;52.566;13.346;2022-12-16T15:19:08;14.52;;;7.55;;
34775;SDS011;20989;52.566;13.346;2022-12-16T15:22:35;7.97;;;7.18;;
34775;SDS011;20989;52.566;13.346;2022-12-16T15:26:07;8.77;;;7.32;;
34775;SDS011;20989;52.566;13.346;2022-12-16T15:33:04;7.68;;;6.97;;
34775;SDS011;20989;52.566;13.346;2022-12-16T15:36:31;7.97;;;7.10;;
34775;SDS011;20989;52.566;13.346;2022-12-16T15:39:54;7.82;;;6.60;;
34775;SDS011;20989;52.566;13.346;2022-12-16T15:43:21;7.68;;;6.82;;
34775;SDS011;20989;52.566;13.346;2022-12-16T15:46:46;15.60;;;7.45;;
34775;SDS011;20989;52.566;13.346;2022-12-16T15:50:05;13.63;;;7.03;;
34775;SDS011;20989;52.566;13.346;2022-12-16T15:53:30;14.65;;;7.35;;
34775;SDS011;20989;52.566;13.346;2022-12-16T15:57:21;12.15;;;7.53;;
34775;SDS011;20989;52.566;13.346;2022-12-16T16:05:13;9.10;;;7.03;;
34775;SDS011;20989;52.566;13.346;2022-12-16T16:12:46;6.75;;;6.07;;
34775;SDS011;20989;52.566;13.346;2022-12-16T16:16:07;12.40;;;6.93;;
34775;SDS011;20989;52.566;13.346;2022-12-16T16:19:28;12.43;;;6.65;;
34775;SDS011;20989;52.566;13.346;2022-12-16T16:22:47;13.13;;;6.25;;
34775;SDS011;20989;52.566;13.346;2022-12-16T16:26:07;10.27;;;6.65;;
34775;SDS011;20989;52.566;13.346;2022-12-16T16:29:34;7.80;;;6.55;;
34775;SDS011;20989;52.566;13.346;2022-12-16T16:32:54;10.25;;;6.70;;
34775;SDS011;20989;52.566;13.346;2022-12-16T16:36:13;8.63;;;6.22;;
34775;SDS011;20989;52.566;13.346;2022-12-16T16:39:33;8.35;;;5.88;;
34775;SDS011;20989;52.566;13.346;2022-12-16T16:42:53;35.58;;;8.50;;
34775;SDS011;20989;52.566;13.346;2022-12-16T16:49:44;11.93;;;6.88;;
34775;SDS011;20989;52.566;13.346;2022-12-16T16:53:07;11.75;;;6.88;;
34775;SDS011;20989;52.566;13.346;2022-12-16T16:56:33;20.30;;;7.10;;
34775;SDS011;20989;52.566;13.346;2022-12-16T16:59:53;12.07;;;5.80;;
34775;SDS011;20989;52.566;13.346;2022-12-16T17:03:13;11.23;;;6.60;;
34775;SDS011;20989;52.566;13.346;2022-12-16T17:06:33;21.65;;;7.88;;
34775;SDS011;20989;52.566;13.346;2022-12-16T17:09:52;14.55;;;6.82;;
34775;SDS011;20989;52.566;13.346;2022-12-16T17:13:11;17.63;;;6.68;;
34775;SDS011;20989;52.566;13.346;2022-12-16T17:16:33;34.85;;;9.45;;
34775;SDS011;20989;52.566;13.346;2022-12-16T17:27:49;23.17;;;7.00;;
34775;SDS011;20989;52.566;13.346;2022-12-16T17:31:09;14.68;;;6.82;;
34775;SDS011;20989;52.566;13.346;2022-12-16T17:34:29;10.63;;;6.80;;
34775;SDS011;20989;52.566;13.346;2022-12-16T17:37:48;10.95;;;6.75;;
34775;SDS011;20989;52.566;13.346;2022-12-16T17:41:07;11.85;;;6.65;;
34775;SDS011;20989;52.566;13.346;2022-12-16T17:44:26;7.53;;;6.55;;
34775;SDS011;20989;52.566;13.346;2022-12-16T17:47:45;11.07;;;6.25;;
34775;SDS011;20989;52.566;13.346;2022-12-16T17:51:24;10.00;;;6.22;;
34775;SDS011;20989;52.566;13.346;2022-12-16T17:54:43;10.82;;;6.65;;
34775;SDS011;20989;52.566;13.346;2022-12-16T17:58:03;10.93;;;6.32;;
34775;SDS011;20989;52.566;13.346;2022-12-16T18:05:19;8.68;;;5.93;;
34775;SDS011;20989;52.566;13.346;2022-12-16T18:08:38;8.18;;;5.85;;
34775;SDS011;20989;52.566;13.346;2022-12-16T18:11:57;8.38;;;6.00;;
34775;SDS011;20989;52.566;13.346;2022-12-16T18:15:16;7.88;;;5.30;;
34775;SDS011;20989;52.566;13.346;2022-12-16T18:18:36;10.00;;;6.35;;
34775;SDS011;20989;52.566;13.346;2022-12-16T18:21:56;9.30;;;6.65;;
34775;SDS011;20989;52.566;13.346;2022-12-16T18:25:21;12.35;;;5.97;;
34775;SDS011;20989;52.566;13.346;2022-12-16T18:28:40;6.85;;;4.80;;
34775;SDS011;20989;52.566;13.346;2022-12-16T18:32:00;7.95;;;6.00;;
34775;SDS011;20989;52.566;13.346;2022-12-16T18:35:37;9.27;;;5.85;;
34775;SDS011;20989;52.566;13.346;2022-12-16T18:39:06;10.52;;;5.55;;
34775;SDS011;20989;52.566;13.346;2022-12-16T18:42:25;10.38;;;5.55;;
34775;SDS011;20989;52.566;13.346;2022-12-16T18:45:54;11.65;;;5.53;;
34775;SDS011;20989;52.566;13.346;2022-12-16T18:53:13;16.90;;;6.73;;
34775;SDS011;20989;52.566;13.346;2022-12-16T18:56:32;17.55;;;6.35;;
34775;SDS011;20989;52.566;13.346;2022-12-16T18:59:51;14.45;;;6.18;;
34775;SDS011;20989;52.566;13.346;2022-12-16T19:03:11;17.98;;;6.68;;
34775;SDS011;20989;52.566;13.346;2022-12-16T19:06:30;16.30;;;6.05;;
34775;SDS011;20989;52.566;13.346;2022-12-16T19:09:49;8.07;;;5.95;;
34775;SDS011;20989;52.566;13.346;2022-12-16T19:13:11;6.47;;;5.75;;
34775;SDS011;20989;52.566;13.346;2022-12-16T19:16:38;34.22;;;7.90;;
34775;SDS011;20989;52.566;13.346;2022-12-16T19:19:58;21.90;;;6.85;;
34775;SDS011;20989;52.566;13.346;2022-12-16T19:23:17;15.65;;;6.20;;
34775;SDS011;20989;52.566;13.346;2022-12-16T19:26:37;22.30;;;5.70;;
34775;SDS011;20989;52.566;13.346;2022-12-16T19:34:06;15.77;;;6.90;;
34775;SDS011;20989;52.566;13.346;2022-12-16T19:37:27;16.80;;;6.63;;
34775;SDS011;20989;52.566;13.346;2022-12-16T19:40:50;10.15;;;6.13;;
34775;SDS011;20989;52.566;13.346;2022-12-16T19:44:10;12.38;;;6.88;;
34775;SDS011;20989;52.566;13.346;2022-12-16T19:47:31;10.88;;;5.60;;
34775;SDS011;20989;52.566;13.346;2022-12-16T19:50:58;7.65;;;5.95;;
34775;SDS011;20989;52.566;13.346;2022-12-16T19:57:41;6.68;;;5.55;;
34775;SDS011;20989;52.566;13.346;2022-12-16T20:01:02;9.00;;;5.78;;
34775;SDS011;20989;52.566;13.346;2022-12-16T20:04:23;6.85;;;6.15;;
34775;SDS011;20989;52.566;13.346;2022-12-16T20:07:45;7.45;;;5.18;;
34775;SDS011;20989;52.566;13.346;2022-12-16T20:11:06;6.70;;;6.10;;
34775;SDS011;20989;52.566;13.346;2022-12-16T20:14:27;6.03;;;5.38;;
34775;SDS011;20989;52.566;13.346;2022-12-16T20:17:48;7.53;;;6.15;;
34775;SDS011;20989;52.566;13.346;2022-12-16T20:21:08;6.78;;;5.90;;
34775;SDS011;20989;52.566;13.346;2022-12-16T20:24:33;6.20;;;5.63;;
34775;SDS011;20989;52.566;13.346;2022-12-16T20:27:53;6.50;;;5.53;;
34775;SDS011;20989;52.566;13.346;2022-12-16T20:31:13;7.60;;;5.90;;
34775;SDS011;20989;52.566;13.346;2022-12-16T20:34:33;6.75;;;5.78;;
34775;SDS011;20989;52.566;13.346;2022-12-16T20:37:53;9.23;;;6.72;;
34775;SDS011;20989;52.566;13.346;2022-12-16T20:41:14;8.32;;;5.93;;
34775;SDS011;20989;52.566;13.346;2022-12-16T20:44:35;7.18;;;6.10;;
34775;SDS011;20989;52.566;13.346;2022-12-16T20:47:55;6.82;;;5.70;;
34775;SDS011;20989;52.566;13.346;2022-12-16T20:51:14;5.88;;;5.15;;
34775;SDS011;20989;52.566;13.346;2022-12-16T20:54:35;6.50;;;5.88;;
34775;SDS011;20989;52.566;13.346;2022-12-16T20:57:54;6.40;;;5.70;;
34775;SDS011;20989;52.566;13.346;2022-12-16T21:01:14;5.78;;;5.07;;
34775;SDS011;20989;52.566;13.346;2022-12-16T21:04:34;5.30;;;4.90;;
34775;SDS011;20989;52.566;13.346;2022-12-16T21:07:57;5.68;;;5.18;;
34775;SDS011;20989;52.566;13.346;2022-12-16T21:11:17;5.78;;;5.25;;
34775;SDS011;20989;52.566;13.346;2022-12-16T21:14:40;6.22;;;5.63;;
34775;SDS011;20989;52.566;13.346;2022-12-16T21:22:08;5.53;;;5.03;;
34775;SDS011;20989;52.566;13.346;2022-12-16T21:25:27;4.90;;;4.50;;
34775;SDS011;20989;52.566;13.346;2022-12-16T21:28:49;5.75;;;5.22;;
34775;SDS011;20989;52.566;13.346;2022-12-16T21:32:08;5.20;;;4.80;;
34775;SDS011;20989;52.566;13.346;2022-12-16T21:35:27;4.85;;;4.25;;
34775;SDS011;20989;52.566;13.346;2022-12-16T21:38:47;5.38;;;4.97;;
34775;SDS011;20989;52.566;13.346;2022-12-16T21:42:06;6.03;;;5.43;;
34775;SDS011;20989;52.566;13.346;2022-12-16T21:45:25;5.70;;;5.20;;
34775;SDS011;20989;52.566;13.346;2022-12-16T21:48:44;5.28;;;4.78;;
34775;SDS011;20989;52.566;13.346;2022-12-16T21:52:03;5.32;;;4.82;;
34775;SDS011;20989;52.566;13.346;2022-12-16T21:55:22;6.25;;;5.15;;
34775;SDS011;20989;52.566;13.346;2022-12-16T21:58:42;5.57;;;5.10;;
34775;SDS011;20989;52.566;13.346;2022-12-16T22:02:01;5.55;;;5.00;;